Other Surface Observations
Issued by NWS Missoula, MT

Home | Current Version | Previous Version | Text Only | Print | Product List | Glossary On
Versions: 1 2 3 4 5 6 7 8 9 10 11 12 13 14 15 16 17 18 19 20 21 22 23 24 25 26 27 28 29 30 31 32 33 34 35 36 37 38 39 40 41 42 43 44 45 46 47 48 49 50
000
SXUS55 KMSO 231303
OSOMSO
MONTANA AWOS SUMMARY
NATIONAL WEATHER SERVICE MISSOULA MT
603 AM MST SUN APR 23 2017

Montana AWOS Reports

LAUREL      |K6S8 231255Z AUTO 00000KT 40SM 07/02 A2981 RMK AO1 T00670022
ROUNDUP     |KRPX 231255Z AUTO 00000KT 40SM 05/02 A2973 RMK AO1 T00500022
EKALAKA     |K97M 231255Z AUTO 09008KT 10SM 03/02 A2983 RMK AO1 T00330017
PLAINS      |KS34 231255Z AUTO 00000KT 40SM 08/03 A2988 RMK AO1 T00830028
SCOBEY      |K9S2 231255Z AUTO 08012G17KT 15SM M01/M04 A2996 RMK AO1 T10051043
TWIN BRIDGES|K7S1 231255Z AUTO 11005KT 40SM 07/M02 A2984 RMK AO1 T00671016




USA.gov is the U.S. government's official web portal to all federal, state and local government web resources and services.